Lech, Austria
Current Conditions -  °F | °C
As of 3:50 PM on Monday 22 Dec 2014 (Local Time) from LSZR Reporting Station
Clear Clear  
Wind Chill: 40°   Ceiling: Unl
Heat Index: 43°   Visibility: 6mi
Dew Point: 32°   Wind: 5mph
Humidity: 66%   Direction: 100°E
Pressure: 30.36"   Gusts: NA
Location:  47.21°N, 10.14°E
Report Text: LSZR 221350Z 10004KT CAVOK 06/M00 Q1028 NOSIG RMK J
Loading
Personal Weather Stations






























Interactive Weather Map New forecast layout! Learn more

10-Day Weather Forecast

Advertisements
Track Severe Weather on mobile